sensor_id;sensor_type;location;lat;lon;timestamp;P1;durP1;ratioP1;P2;durP2;ratioP2
51943;SDS011;37969;53.132;6.370;2023-02-28T00:00:09;16.02;;;7.18;;
51943;SDS011;37969;53.132;6.370;2023-02-28T00:02:36;17.38;;;5.97;;
51943;SDS011;37969;53.132;6.370;2023-02-28T00:05:03;14.05;;;5.97;;
51943;SDS011;37969;53.132;6.370;2023-02-28T00:07:30;25.48;;;12.70;;
51943;SDS011;37969;53.132;6.370;2023-02-28T00:10:02;31.85;;;17.55;;
51943;SDS011;37969;53.132;6.370;2023-02-28T00:12:29;48.92;;;23.40;;
51943;SDS011;37969;53.132;6.370;2023-02-28T00:14:55;32.28;;;18.92;;
51943;SDS011;37969;53.132;6.370;2023-02-28T00:17:21;21.95;;;12.57;;
51943;SDS011;37969;53.132;6.370;2023-02-28T00:19:47;22.88;;;13.13;;
51943;SDS011;37969;53.132;6.370;2023-02-28T00:22:29;22.52;;;12.60;;
51943;SDS011;37969;53.132;6.370;2023-02-28T00:24:55;22.88;;;11.20;;
51943;SDS011;37969;53.132;6.370;2023-02-28T00:27:21;26.48;;;11.02;;
51943;SDS011;37969;53.132;6.370;2023-02-28T00:29:47;22.67;;;10.55;;
51943;SDS011;37969;53.132;6.370;2023-02-28T00:32:14;31.38;;;13.88;;
51943;SDS011;37969;53.132;6.370;2023-02-28T00:34:40;29.13;;;12.05;;
51943;SDS011;37969;53.132;6.370;2023-02-28T00:37:07;23.20;;;11.27;;
51943;SDS011;37969;53.132;6.370;2023-02-28T00:39:34;36.40;;;12.52;;
51943;SDS011;37969;53.132;6.370;2023-02-28T00:42:01;49.78;;;18.92;;
51943;SDS011;37969;53.132;6.370;2023-02-28T00:44:27;28.73;;;12.27;;
51943;SDS011;37969;53.132;6.370;2023-02-28T00:46:54;23.45;;;11.32;;
51943;SDS011;37969;53.132;6.370;2023-02-28T00:49:21;25.83;;;11.43;;
51943;SDS011;37969;53.132;6.370;2023-02-28T00:51:47;35.17;;;15.52;;
51943;SDS011;37969;53.132;6.370;2023-02-28T00:54:14;24.42;;;11.02;;
51943;SDS011;37969;53.132;6.370;2023-02-28T00:56:40;56.00;;;26.02;;
51943;SDS011;37969;53.132;6.370;2023-02-28T00:59:06;45.30;;;21.00;;
51943;SDS011;37969;53.132;6.370;2023-02-28T01:01:33;28.85;;;11.00;;
51943;SDS011;37969;53.132;6.370;2023-02-28T01:03:59;30.42;;;11.77;;
51943;SDS011;37969;53.132;6.370;2023-02-28T01:06:25;27.85;;;10.57;;
51943;SDS011;37969;53.132;6.370;2023-02-28T01:08:51;29.27;;;11.93;;
51943;SDS011;37969;53.132;6.370;2023-02-28T01:11:17;20.95;;;10.65;;
51943;SDS011;37969;53.132;6.370;2023-02-28T01:13:44;25.13;;;10.23;;
51943;SDS011;37969;53.132;6.370;2023-02-28T01:16:11;23.45;;;11.55;;
51943;SDS011;37969;53.132;6.370;2023-02-28T01:18:37;21.30;;;8.93;;
51943;SDS011;37969;53.132;6.370;2023-02-28T01:21:04;21.55;;;8.60;;
51943;SDS011;37969;53.132;6.370;2023-02-28T01:23:30;21.95;;;9.35;;
51943;SDS011;37969;53.132;6.370;2023-02-28T01:26:02;21.95;;;8.73;;
51943;SDS011;37969;53.132;6.370;2023-02-28T01:28:28;24.95;;;8.00;;
51943;SDS011;37969;53.132;6.370;2023-02-28T01:30:55;37.75;;;17.85;;
51943;SDS011;37969;53.132;6.370;2023-02-28T01:33:21;32.80;;;18.13;;
51943;SDS011;37969;53.132;6.370;2023-02-28T01:35:47;19.98;;;8.68;;
51943;SDS011;37969;53.132;6.370;2023-02-28T01:38:13;26.30;;;10.88;;
51943;SDS011;37969;53.132;6.370;2023-02-28T01:40:39;23.15;;;8.90;;
51943;SDS011;37969;53.132;6.370;2023-02-28T01:43:18;29.35;;;14.00;;
51943;SDS011;37969;53.132;6.370;2023-02-28T01:45:45;25.95;;;9.73;;
51943;SDS011;37969;53.132;6.370;2023-02-28T01:48:11;38.95;;;18.02;;
51943;SDS011;37969;53.132;6.370;2023-02-28T01:50:39;26.20;;;12.18;;
51943;SDS011;37969;53.132;6.370;2023-02-28T01:53:07;18.35;;;9.40;;
51943;SDS011;37969;53.132;6.370;2023-02-28T01:55:35;23.15;;;10.48;;
51943;SDS011;37969;53.132;6.370;2023-02-28T01:58:04;25.17;;;9.60;;
51943;SDS011;37969;53.132;6.370;2023-02-28T02:00:31;17.40;;;8.73;;
51943;SDS011;37969;53.132;6.370;2023-02-28T02:02:59;27.70;;;9.93;;
51943;SDS011;37969;53.132;6.370;2023-02-28T02:05:28;23.45;;;9.95;;
51943;SDS011;37969;53.132;6.370;2023-02-28T02:07:57;25.23;;;10.32;;
51943;SDS011;37969;53.132;6.370;2023-02-28T02:10:29;27.08;;;11.75;;
51943;SDS011;37969;53.132;6.370;2023-02-28T02:15:31;16.08;;;8.27;;
51943;SDS011;37969;53.132;6.370;2023-02-28T02:17:59;16.20;;;7.43;;
51943;SDS011;37969;53.132;6.370;2023-02-28T02:20:32;31.90;;;13.90;;
51943;SDS011;37969;53.132;6.370;2023-02-28T02:25:45;17.10;;;8.38;;
51943;SDS011;37969;53.132;6.370;2023-02-28T02:35:59;23.50;;;9.82;;
51943;SDS011;37969;53.132;6.370;2023-02-28T02:38:33;21.08;;;8.55;;
51943;SDS011;37969;53.132;6.370;2023-02-28T02:41:09;25.02;;;8.95;;
51943;SDS011;37969;53.132;6.370;2023-02-28T02:43:40;19.65;;;7.03;;
51943;SDS011;37969;53.132;6.370;2023-02-28T02:46:10;14.25;;;6.97;;
51943;SDS011;37969;53.132;6.370;2023-02-28T02:48:38;13.15;;;6.85;;
51943;SDS011;37969;53.132;6.370;2023-02-28T02:51:07;14.52;;;7.22;;
51943;SDS011;37969;53.132;6.370;2023-02-28T02:53:38;13.05;;;7.35;;
51943;SDS011;37969;53.132;6.370;2023-02-28T02:56:06;24.38;;;7.97;;
51943;SDS011;37969;53.132;6.370;2023-02-28T02:58:34;16.00;;;8.73;;
51943;SDS011;37969;53.132;6.370;2023-02-28T03:01:01;21.85;;;9.68;;
51943;SDS011;37969;53.132;6.370;2023-02-28T03:03:29;15.95;;;7.07;;
51943;SDS011;37969;53.132;6.370;2023-02-28T03:05:57;22.75;;;8.60;;
51943;SDS011;37969;53.132;6.370;2023-02-28T03:08:24;12.27;;;7.60;;
51943;SDS011;37969;53.132;6.370;2023-02-28T03:10:52;16.95;;;8.18;;
51943;SDS011;37969;53.132;6.370;2023-02-28T03:16:07;18.23;;;8.80;;
51943;SDS011;37969;53.132;6.370;2023-02-28T03:18:41;14.55;;;7.85;;
51943;SDS011;37969;53.132;6.370;2023-02-28T03:21:20;16.70;;;7.50;;
51943;SDS011;37969;53.132;6.370;2023-02-28T03:23:53;16.63;;;7.65;;
51943;SDS011;37969;53.132;6.370;2023-02-28T03:26:22;21.23;;;9.23;;
51943;SDS011;37969;53.132;6.370;2023-02-28T03:28:52;18.00;;;7.60;;
51943;SDS011;37969;53.132;6.370;2023-02-28T03:31:21;16.15;;;6.22;;
51943;SDS011;37969;53.132;6.370;2023-02-28T03:33:51;22.27;;;9.27;;
51943;SDS011;37969;53.132;6.370;2023-02-28T03:36:22;21.33;;;7.85;;
51943;SDS011;37969;53.132;6.370;2023-02-28T03:41:21;20.35;;;9.65;;
51943;SDS011;37969;53.132;6.370;2023-02-28T03:43:56;23.92;;;9.55;;
51943;SDS011;37969;53.132;6.370;2023-02-28T03:46:24;30.73;;;14.02;;
51943;SDS011;37969;53.132;6.370;2023-02-28T03:48:53;29.48;;;12.85;;
51943;SDS011;37969;53.132;6.370;2023-02-28T03:51:21;20.73;;;12.00;;
51943;SDS011;37969;53.132;6.370;2023-02-28T03:53:50;22.50;;;13.25;;
51943;SDS011;37969;53.132;6.370;2023-02-28T03:56:20;22.70;;;12.70;;
51943;SDS011;37969;53.132;6.370;2023-02-28T03:58:50;23.08;;;16.35;;
51943;SDS011;37969;53.132;6.370;2023-02-28T04:01:22;33.13;;;16.95;;
51943;SDS011;37969;53.132;6.370;2023-02-28T04:03:49;22.60;;;14.05;;
51943;SDS011;37969;53.132;6.370;2023-02-28T04:06:16;23.90;;;14.18;;
51943;SDS011;37969;53.132;6.370;2023-02-28T04:08:43;28.48;;;15.93;;
51943;SDS011;37969;53.132;6.370;2023-02-28T04:13:42;20.30;;;12.52;;
51943;SDS011;37969;53.132;6.370;2023-02-28T04:16:08;25.98;;;13.88;;
51943;SDS011;37969;53.132;6.370;2023-02-28T04:18:37;20.80;;;13.87;;
51943;SDS011;37969;53.132;6.370;2023-02-28T04:21:04;19.02;;;12.55;;
51943;SDS011;37969;53.132;6.370;2023-02-28T04:23:30;18.48;;;13.25;;
51943;SDS011;37969;53.132;6.370;2023-02-28T04:25:56;21.80;;;12.77;;
51943;SDS011;37969;53.132;6.370;2023-02-28T04:28:23;17.77;;;11.50;;
51943;SDS011;37969;53.132;6.370;2023-02-28T04:30:57;19.27;;;12.43;;
51943;SDS011;37969;53.132;6.370;2023-02-28T04:33:23;19.95;;;12.75;;
51943;SDS011;37969;53.132;6.370;2023-02-28T04:35:59;23.30;;;14.02;;
51943;SDS011;37969;53.132;6.370;2023-02-28T04:38:25;15.90;;;10.75;;
51943;SDS011;37969;53.132;6.370;2023-02-28T04:40:51;16.67;;;10.85;;
51943;SDS011;37969;53.132;6.370;2023-02-28T04:43:17;15.68;;;9.85;;
51943;SDS011;37969;53.132;6.370;2023-02-28T04:45:43;15.95;;;9.85;;
51943;SDS011;37969;53.132;6.370;2023-02-28T04:48:10;13.52;;;10.07;;
51943;SDS011;37969;53.132;6.370;2023-02-28T04:50:36;18.15;;;10.43;;
51943;SDS011;37969;53.132;6.370;2023-02-28T04:53:02;14.60;;;9.80;;
51943;SDS011;37969;53.132;6.370;2023-02-28T04:55:28;20.65;;;11.45;;
51943;SDS011;37969;53.132;6.370;2023-02-28T04:57:54;20.42;;;11.73;;
51943;SDS011;37969;53.132;6.370;2023-02-28T05:00:20;19.60;;;11.77;;
51943;SDS011;37969;53.132;6.370;2023-02-28T05:02:47;18.98;;;11.52;;
51943;SDS011;37969;53.132;6.370;2023-02-28T05:05:13;19.83;;;12.43;;
51943;SDS011;37969;53.132;6.370;2023-02-28T05:07:43;18.27;;;10.60;;
51943;SDS011;37969;53.132;6.370;2023-02-28T05:10:09;21.23;;;12.25;;
51943;SDS011;37969;53.132;6.370;2023-02-28T05:12:36;20.85;;;11.13;;
51943;SDS011;37969;53.132;6.370;2023-02-28T05:15:04;17.23;;;12.07;;
51943;SDS011;37969;53.132;6.370;2023-02-28T05:17:30;25.08;;;13.32;;
51943;SDS011;37969;53.132;6.370;2023-02-28T05:19:56;23.20;;;13.18;;
51943;SDS011;37969;53.132;6.370;2023-02-28T05:22:22;20.10;;;12.57;;
51943;SDS011;37969;53.132;6.370;2023-02-28T05:24:49;18.45;;;13.15;;
51943;SDS011;37969;53.132;6.370;2023-02-28T05:27:15;23.52;;;13.27;;
51943;SDS011;37969;53.132;6.370;2023-02-28T05:29:41;25.17;;;14.63;;
51943;SDS011;37969;53.132;6.370;2023-02-28T05:32:09;27.67;;;15.18;;
51943;SDS011;37969;53.132;6.370;2023-02-28T05:34:36;28.55;;;15.07;;
51943;SDS011;37969;53.132;6.370;2023-02-28T05:37:02;23.73;;;14.55;;
51943;SDS011;37969;53.132;6.370;2023-02-28T05:39:28;24.00;;;14.27;;
51943;SDS011;37969;53.132;6.370;2023-02-28T05:41:54;31.88;;;16.20;;
51943;SDS011;37969;53.132;6.370;2023-02-28T05:44:21;26.85;;;16.13;;
51943;SDS011;37969;53.132;6.370;2023-02-28T05:46:47;23.90;;;16.15;;
51943;SDS011;37969;53.132;6.370;2023-02-28T05:49:13;29.98;;;16.73;;
51943;SDS011;37969;53.132;6.370;2023-02-28T05:51:39;26.38;;;16.08;;
51943;SDS011;37969;53.132;6.370;2023-02-28T05:54:05;29.92;;;16.30;;
51943;SDS011;37969;53.132;6.370;2023-02-28T05:56:32;26.67;;;15.95;;
51943;SDS011;37969;53.132;6.370;2023-02-28T05:59:00;24.10;;;14.70;;
51943;SDS011;37969;53.132;6.370;2023-02-28T06:01:35;24.67;;;15.35;;
51943;SDS011;37969;53.132;6.370;2023-02-28T06:04:02;23.05;;;14.43;;
51943;SDS011;37969;53.132;6.370;2023-02-28T06:06:29;23.13;;;15.05;;
51943;SDS011;37969;53.132;6.370;2023-02-28T06:08:55;30.55;;;18.58;;
51943;SDS011;37969;53.132;6.370;2023-02-28T06:11:22;32.67;;;19.92;;
51943;SDS011;37969;53.132;6.370;2023-02-28T06:16:17;34.17;;;19.15;;
51943;SDS011;37969;53.132;6.370;2023-02-28T06:18:44;35.58;;;20.38;;
51943;SDS011;37969;53.132;6.370;2023-02-28T06:21:10;43.10;;;22.02;;
51943;SDS011;37969;53.132;6.370;2023-02-28T06:23:37;40.90;;;22.77;;
51943;SDS011;37969;53.132;6.370;2023-02-28T06:26:04;40.60;;;22.17;;
51943;SDS011;37969;53.132;6.370;2023-02-28T06:28:30;34.30;;;20.60;;
51943;SDS011;37969;53.132;6.370;2023-02-28T06:30:56;26.38;;;17.95;;
51943;SDS011;37969;53.132;6.370;2023-02-28T06:33:23;31.63;;;18.90;;
51943;SDS011;37969;53.132;6.370;2023-02-28T06:35:50;33.63;;;18.92;;
51943;SDS011;37969;53.132;6.370;2023-02-28T06:38:16;34.55;;;19.67;;
51943;SDS011;37969;53.132;6.370;2023-02-28T06:40:43;26.58;;;18.17;;
51943;SDS011;37969;53.132;6.370;2023-02-28T06:43:10;30.02;;;18.30;;
51943;SDS011;37969;53.132;6.370;2023-02-28T06:45:41;32.72;;;19.42;;
51943;SDS011;37969;53.132;6.370;2023-02-28T06:48:07;37.97;;;22.83;;
51943;SDS011;37969;53.132;6.370;2023-02-28T06:50:34;34.25;;;19.85;;
51943;SDS011;37969;53.132;6.370;2023-02-28T06:53:00;34.38;;;19.98;;
51943;SDS011;37969;53.132;6.370;2023-02-28T06:55:26;34.58;;;19.73;;
51943;SDS011;37969;53.132;6.370;2023-02-28T06:57:52;33.05;;;19.52;;
51943;SDS011;37969;53.132;6.370;2023-02-28T07:00:20;36.85;;;18.77;;
51943;SDS011;37969;53.132;6.370;2023-02-28T07:02:46;33.13;;;19.45;;
51943;SDS011;37969;53.132;6.370;2023-02-28T07:05:12;30.02;;;19.25;;
51943;SDS011;37969;53.132;6.370;2023-02-28T07:07:39;33.88;;;18.83;;
51943;SDS011;37969;53.132;6.370;2023-02-28T07:10:09;34.83;;;19.30;;
51943;SDS011;37969;53.132;6.370;2023-02-28T07:12:36;34.08;;;20.77;;
51943;SDS011;37969;53.132;6.370;2023-02-28T07:15:04;31.75;;;18.58;;
51943;SDS011;37969;53.132;6.370;2023-02-28T07:17:30;28.23;;;18.85;;
51943;SDS011;37969;53.132;6.370;2023-02-28T07:19:57;35.38;;;19.63;;
51943;SDS011;37969;53.132;6.370;2023-02-28T07:22:23;34.35;;;19.52;;
51943;SDS011;37969;53.132;6.370;2023-02-28T07:24:50;36.58;;;20.98;;
51943;SDS011;37969;53.132;6.370;2023-02-28T07:27:16;31.77;;;18.52;;
51943;SDS011;37969;53.132;6.370;2023-02-28T07:29:49;35.20;;;19.80;;
51943;SDS011;37969;53.132;6.370;2023-02-28T07:32:15;33.05;;;19.73;;
51943;SDS011;37969;53.132;6.370;2023-02-28T07:34:41;42.25;;;21.60;;
51943;SDS011;37969;53.132;6.370;2023-02-28T07:37:08;34.42;;;20.85;;
51943;SDS011;37969;53.132;6.370;2023-02-28T07:39:34;35.85;;;21.70;;
51943;SDS011;37969;53.132;6.370;2023-02-28T07:42:03;36.25;;;19.60;;
51943;SDS011;37969;53.132;6.370;2023-02-28T07:44:29;32.28;;;18.63;;
51943;SDS011;37969;53.132;6.370;2023-02-28T07:46:56;30.60;;;18.38;;
51943;SDS011;37969;53.132;6.370;2023-02-28T07:49:22;32.30;;;20.23;;
51943;SDS011;37969;53.132;6.370;2023-02-28T07:51:48;35.05;;;20.40;;
51943;SDS011;37969;53.132;6.370;2023-02-28T07:54:14;42.08;;;27.52;;
51943;SDS011;37969;53.132;6.370;2023-02-28T07:56:40;54.25;;;31.42;;
51943;SDS011;37969;53.132;6.370;2023-02-28T07:59:06;51.65;;;27.48;;
51943;SDS011;37969;53.132;6.370;2023-02-28T08:01:32;57.67;;;32.58;;
51943;SDS011;37969;53.132;6.370;2023-02-28T08:03:59;65.93;;;35.83;;
51943;SDS011;37969;53.132;6.370;2023-02-28T08:06:25;34.88;;;20.40;;
51943;SDS011;37969;53.132;6.370;2023-02-28T08:08:52;29.00;;;17.92;;
51943;SDS011;37969;53.132;6.370;2023-02-28T08:11:18;34.05;;;20.48;;
51943;SDS011;37969;53.132;6.370;2023-02-28T08:13:45;30.80;;;19.52;;
51943;SDS011;37969;53.132;6.370;2023-02-28T08:16:11;32.08;;;20.38;;
51943;SDS011;37969;53.132;6.370;2023-02-28T08:18:42;29.02;;;18.88;;
51943;SDS011;37969;53.132;6.370;2023-02-28T08:21:09;32.63;;;21.48;;
51943;SDS011;37969;53.132;6.370;2023-02-28T08:23:35;25.00;;;16.58;;
51943;SDS011;37969;53.132;6.370;2023-02-28T08:26:02;24.10;;;17.08;;
51943;SDS011;37969;53.132;6.370;2023-02-28T08:28:28;31.58;;;18.27;;
51943;SDS011;37969;53.132;6.370;2023-02-28T08:30:55;26.35;;;17.33;;
51943;SDS011;37969;53.132;6.370;2023-02-28T08:33:21;28.80;;;18.95;;
51943;SDS011;37969;53.132;6.370;2023-02-28T08:35:48;31.67;;;19.27;;
51943;SDS011;37969;53.132;6.370;2023-02-28T08:38:14;27.90;;;18.58;;
51943;SDS011;37969;53.132;6.370;2023-02-28T08:40:40;30.98;;;18.00;;
51943;SDS011;37969;53.132;6.370;2023-02-28T08:43:07;28.85;;;18.33;;
51943;SDS011;37969;53.132;6.370;2023-02-28T08:45:34;27.52;;;18.40;;
51943;SDS011;37969;53.132;6.370;2023-02-28T08:48:00;26.17;;;17.25;;
51943;SDS011;37969;53.132;6.370;2023-02-28T08:50:26;22.10;;;15.55;;
51943;SDS011;37969;53.132;6.370;2023-02-28T08:52:52;23.52;;;16.00;;
51943;SDS011;37969;53.132;6.370;2023-02-28T08:55:18;23.65;;;16.00;;
51943;SDS011;37969;53.132;6.370;2023-02-28T08:57:44;23.65;;;16.67;;
51943;SDS011;37969;53.132;6.370;2023-02-28T09:00:11;31.02;;;17.50;;
51943;SDS011;37969;53.132;6.370;2023-02-28T09:02:39;26.85;;;18.25;;
51943;SDS011;37969;53.132;6.370;2023-02-28T09:05:05;29.70;;;18.40;;
51943;SDS011;37969;53.132;6.370;2023-02-28T09:07:31;23.90;;;17.23;;
51943;SDS011;37969;53.132;6.370;2023-02-28T09:09:58;22.60;;;15.02;;
51943;SDS011;37969;53.132;6.370;2023-02-28T09:12:25;25.30;;;16.15;;
51943;SDS011;37969;53.132;6.370;2023-02-28T09:14:51;22.48;;;16.13;;
51943;SDS011;37969;53.132;6.370;2023-02-28T09:17:18;27.80;;;16.80;;
51943;SDS011;37969;53.132;6.370;2023-02-28T09:19:44;21.60;;;15.50;;
51943;SDS011;37969;53.132;6.370;2023-02-28T09:22:10;25.45;;;16.20;;
51943;SDS011;37969;53.132;6.370;2023-02-28T09:24:37;24.17;;;15.70;;
51943;SDS011;37969;53.132;6.370;2023-02-28T09:27:03;21.25;;;14.55;;
51943;SDS011;37969;53.132;6.370;2023-02-28T09:29:33;19.95;;;14.88;;
51943;SDS011;37969;53.132;6.370;2023-02-28T09:31:59;22.65;;;14.52;;
51943;SDS011;37969;53.132;6.370;2023-02-28T09:34:27;21.77;;;15.25;;
51943;SDS011;37969;53.132;6.370;2023-02-28T09:36:55;23.90;;;15.85;;
51943;SDS011;37969;53.132;6.370;2023-02-28T09:39:22;20.70;;;14.40;;
51943;SDS011;37969;53.132;6.370;2023-02-28T09:41:50;22.25;;;14.82;;
51943;SDS011;37969;53.132;6.370;2023-02-28T09:44:20;23.17;;;15.40;;
51943;SDS011;37969;53.132;6.370;2023-02-28T09:46:49;19.15;;;14.55;;
51943;SDS011;37969;53.132;6.370;2023-02-28T09:49:20;23.08;;;15.43;;
51943;SDS011;37969;53.132;6.370;2023-02-28T09:51:50;21.97;;;13.87;;
51943;SDS011;37969;53.132;6.370;2023-02-28T09:54:18;19.40;;;13.85;;
51943;SDS011;37969;53.132;6.370;2023-02-28T09:56:48;23.83;;;15.38;;
51943;SDS011;37969;53.132;6.370;2023-02-28T09:59:23;20.38;;;13.80;;
51943;SDS011;37969;53.132;6.370;2023-02-28T10:06:51;21.23;;;12.82;;
51943;SDS011;37969;53.132;6.370;2023-02-28T10:09:19;15.60;;;12.32;;
51943;SDS011;37969;53.132;6.370;2023-02-28T10:11:48;18.42;;;12.40;;
51943;SDS011;37969;53.132;6.370;2023-02-28T10:16:45;16.58;;;11.93;;
51943;SDS011;37969;53.132;6.370;2023-02-28T10:19:14;16.52;;;11.93;;
51943;SDS011;37969;53.132;6.370;2023-02-28T10:21:43;17.70;;;11.82;;
51943;SDS011;37969;53.132;6.370;2023-02-28T10:26:38;17.17;;;10.23;;
51943;SDS011;37969;53.132;6.370;2023-02-28T10:29:04;17.10;;;11.02;;
51943;SDS011;37969;53.132;6.370;2023-02-28T10:31:30;13.48;;;9.73;;
51943;SDS011;37969;53.132;6.370;2023-02-28T10:33:56;13.50;;;8.90;;
51943;SDS011;37969;53.132;6.370;2023-02-28T10:36:22;16.00;;;9.55;;
51943;SDS011;37969;53.132;6.370;2023-02-28T10:38:49;13.68;;;10.25;;
51943;SDS011;37969;53.132;6.370;2023-02-28T10:41:17;12.18;;;9.38;;
51943;SDS011;37969;53.132;6.370;2023-02-28T10:43:52;20.58;;;13.02;;
51943;SDS011;37969;53.132;6.370;2023-02-28T10:46:19;9.85;;;7.32;;
51943;SDS011;37969;53.132;6.370;2023-02-28T10:49:02;10.82;;;7.93;;
51943;SDS011;37969;53.132;6.370;2023-02-28T10:51:34;21.48;;;13.65;;
51943;SDS011;37969;53.132;6.370;2023-02-28T10:54:00;13.27;;;8.77;;
51943;SDS011;37969;53.132;6.370;2023-02-28T10:56:27;13.48;;;8.02;;
51943;SDS011;37969;53.132;6.370;2023-02-28T10:59:02;15.13;;;8.27;;
51943;SDS011;37969;53.132;6.370;2023-02-28T11:01:39;10.55;;;7.38;;
51943;SDS011;37969;53.132;6.370;2023-02-28T11:04:19;11.70;;;7.95;;
51943;SDS011;37969;53.132;6.370;2023-02-28T11:06:46;12.85;;;7.75;;
51943;SDS011;37969;53.132;6.370;2023-02-28T11:09:16;18.70;;;8.75;;
51943;SDS011;37969;53.132;6.370;2023-02-28T11:11:44;6.40;;;5.25;;
51943;SDS011;37969;53.132;6.370;2023-02-28T11:14:20;9.95;;;6.25;;
51943;SDS011;37969;53.132;6.370;2023-02-28T11:16:46;6.55;;;5.05;;
51943;SDS011;37969;53.132;6.370;2023-02-28T11:19:19;5.32;;;4.55;;
51943;SDS011;37969;53.132;6.370;2023-02-28T11:21:49;10.23;;;5.60;;
51943;SDS011;37969;53.132;6.370;2023-02-28T11:24:30;6.72;;;4.57;;
51943;SDS011;37969;53.132;6.370;2023-02-28T11:26:58;7.97;;;4.88;;
51943;SDS011;37969;53.132;6.370;2023-02-28T11:29:25;9.07;;;5.40;;
51943;SDS011;37969;53.132;6.370;2023-02-28T11:34:34;7.65;;;5.05;;
51943;SDS011;37969;53.132;6.370;2023-02-28T11:37:00;6.32;;;4.40;;
51943;SDS011;37969;53.132;6.370;2023-02-28T11:39:30;7.00;;;5.28;;
51943;SDS011;37969;53.132;6.370;2023-02-28T11:42:01;6.15;;;4.63;;
51943;SDS011;37969;53.132;6.370;2023-02-28T11:47:04;6.40;;;4.28;;
51943;SDS011;37969;53.132;6.370;2023-02-28T11:52:02;7.28;;;4.30;;
51943;SDS011;37969;53.132;6.370;2023-02-28T11:54:36;6.18;;;3.97;;
51943;SDS011;37969;53.132;6.370;2023-02-28T11:57:16;5.68;;;4.10;;
51943;SDS011;37969;53.132;6.370;2023-02-28T12:02:23;7.50;;;5.13;;
51943;SDS011;37969;53.132;6.370;2023-02-28T12:09:56;4.65;;;4.13;;
51943;SDS011;37969;53.132;6.370;2023-02-28T12:12:36;6.40;;;4.38;;
51943;SDS011;37969;53.132;6.370;2023-02-28T12:17:43;8.63;;;5.07;;
51943;SDS011;37969;53.132;6.370;2023-02-28T12:22:53;4.78;;;3.78;;
51943;SDS011;37969;53.132;6.370;2023-02-28T12:27:48;4.70;;;3.78;;
51943;SDS011;37969;53.132;6.370;2023-02-28T12:32:42;5.82;;;3.78;;
51943;SDS011;37969;53.132;6.370;2023-02-28T12:35:11;5.40;;;4.20;;
51943;SDS011;37969;53.132;6.370;2023-02-28T12:37:43;5.68;;;3.58;;
51943;SDS011;37969;53.132;6.370;2023-02-28T12:42:40;10.02;;;4.32;;
51943;SDS011;37969;53.132;6.370;2023-02-28T12:47:34;5.90;;;4.20;;
51943;SDS011;37969;53.132;6.370;2023-02-28T12:50:03;7.65;;;4.57;;
51943;SDS011;37969;53.132;6.370;2023-02-28T12:55:04;5.53;;;4.10;;
51943;SDS011;37969;53.132;6.370;2023-02-28T12:57:35;6.22;;;4.47;;
51943;SDS011;37969;53.132;6.370;2023-02-28T13:00:10;6.13;;;4.10;;
51943;SDS011;37969;53.132;6.370;2023-02-28T13:05:08;7.40;;;4.70;;
51943;SDS011;37969;53.132;6.370;2023-02-28T13:07:49;6.65;;;4.63;;
51943;SDS011;37969;53.132;6.370;2023-02-28T13:10:18;7.43;;;4.50;;
51943;SDS011;37969;53.132;6.370;2023-02-28T13:12:48;7.13;;;4.13;;
51943;SDS011;37969;53.132;6.370;2023-02-28T13:15:17;7.50;;;5.43;;
51943;SDS011;37969;53.132;6.370;2023-02-28T13:17:51;7.00;;;4.90;;
51943;SDS011;37969;53.132;6.370;2023-02-28T13:20:20;8.98;;;5.25;;
51943;SDS011;37969;53.132;6.370;2023-02-28T13:22:47;9.60;;;4.80;;
51943;SDS011;37969;53.132;6.370;2023-02-28T13:27:47;6.60;;;4.82;;
51943;SDS011;37969;53.132;6.370;2023-02-28T13:33:22;6.72;;;5.00;;
51943;SDS011;37969;53.132;6.370;2023-02-28T13:36:01;7.70;;;4.80;;
51943;SDS011;37969;53.132;6.370;2023-02-28T13:38:33;6.47;;;5.13;;
51943;SDS011;37969;53.132;6.370;2023-02-28T13:46:30;8.27;;;4.75;;
51943;SDS011;37969;53.132;6.370;2023-02-28T13:48:56;6.65;;;4.95;;
51943;SDS011;37969;53.132;6.370;2023-02-28T13:51:37;6.05;;;4.72;;
51943;SDS011;37969;53.132;6.370;2023-02-28T13:54:13;6.03;;;5.00;;
51943;SDS011;37969;53.132;6.370;2023-02-28T13:56:45;8.02;;;5.28;;
51943;SDS011;37969;53.132;6.370;2023-02-28T13:59:16;5.65;;;4.90;;
51943;SDS011;37969;53.132;6.370;2023-02-28T14:01:49;8.38;;;4.95;;
51943;SDS011;37969;53.132;6.370;2023-02-28T14:06:47;6.25;;;4.80;;
51943;SDS011;37969;53.132;6.370;2023-02-28T14:11:42;4.93;;;4.20;;
51943;SDS011;37969;53.132;6.370;2023-02-28T14:14:09;5.80;;;3.90;;
51943;SDS011;37969;53.132;6.370;2023-02-28T14:16:55;5.88;;;4.22;;
51943;SDS011;37969;53.132;6.370;2023-02-28T14:19:24;5.13;;;4.50;;
51943;SDS011;37969;53.132;6.370;2023-02-28T14:22:01;6.15;;;4.80;;
51943;SDS011;37969;53.132;6.370;2023-02-28T14:24:41;6.30;;;4.70;;
51943;SDS011;37969;53.132;6.370;2023-02-28T14:27:29;8.88;;;5.20;;
51943;SDS011;37969;53.132;6.370;2023-02-28T14:32:41;8.00;;;5.05;;
51943;SDS011;37969;53.132;6.370;2023-02-28T14:35:18;8.15;;;5.13;;
51943;SDS011;37969;53.132;6.370;2023-02-28T14:37:46;7.25;;;5.50;;
51943;SDS011;37969;53.132;6.370;2023-02-28T14:40:15;6.93;;;5.03;;
51943;SDS011;37969;53.132;6.370;2023-02-28T14:42:46;9.07;;;5.10;;
51943;SDS011;37969;53.132;6.370;2023-02-28T14:45:17;6.70;;;5.03;;
51943;SDS011;37969;53.132;6.370;2023-02-28T14:47:44;6.18;;;4.72;;
51943;SDS011;37969;53.132;6.370;2023-02-28T14:50:17;7.53;;;5.40;;
51943;SDS011;37969;53.132;6.370;2023-02-28T14:52:44;7.65;;;5.03;;
51943;SDS011;37969;53.132;6.370;2023-02-28T14:55:12;5.30;;;4.80;;
51943;SDS011;37969;53.132;6.370;2023-02-28T15:00:12;6.10;;;4.80;;
51943;SDS011;37969;53.132;6.370;2023-02-28T15:02:40;7.60;;;4.95;;
51943;SDS011;37969;53.132;6.370;2023-02-28T15:07:36;5.07;;;4.47;;
51943;SDS011;37969;53.132;6.370;2023-02-28T15:10:07;7.90;;;5.05;;
51943;SDS011;37969;53.132;6.370;2023-02-28T15:12:34;8.43;;;4.75;;
51943;SDS011;37969;53.132;6.370;2023-02-28T15:15:01;7.00;;;4.88;;
51943;SDS011;37969;53.132;6.370;2023-02-28T15:17:27;6.82;;;5.40;;
51943;SDS011;37969;53.132;6.370;2023-02-28T15:19:53;6.00;;;5.40;;
51943;SDS011;37969;53.132;6.370;2023-02-28T15:22:23;7.20;;;5.45;;
51943;SDS011;37969;53.132;6.370;2023-02-28T15:24:53;8.80;;;5.57;;
51943;SDS011;37969;53.132;6.370;2023-02-28T15:27:26;7.63;;;5.60;;
51943;SDS011;37969;53.132;6.370;2023-02-28T15:29:55;7.53;;;5.57;;
51943;SDS011;37969;53.132;6.370;2023-02-28T15:32:24;6.90;;;5.63;;
51943;SDS011;37969;53.132;6.370;2023-02-28T15:34:50;9.20;;;5.80;;
51943;SDS011;37969;53.132;6.370;2023-02-28T15:37:25;7.13;;;5.68;;
51943;SDS011;37969;53.132;6.370;2023-02-28T15:39:53;8.30;;;5.50;;
51943;SDS011;37969;53.132;6.370;2023-02-28T15:42:21;8.95;;;5.70;;
51943;SDS011;37969;53.132;6.370;2023-02-28T15:44:48;7.70;;;6.03;;
51943;SDS011;37969;53.132;6.370;2023-02-28T15:47:16;9.38;;;5.00;;
51943;SDS011;37969;53.132;6.370;2023-02-28T15:49:48;5.93;;;5.05;;
51943;SDS011;37969;53.132;6.370;2023-02-28T15:52:16;8.60;;;5.38;;
51943;SDS011;37969;53.132;6.370;2023-02-28T15:54:43;7.20;;;5.10;;
51943;SDS011;37969;53.132;6.370;2023-02-28T15:57:13;7.85;;;5.32;;
51943;SDS011;37969;53.132;6.370;2023-02-28T15:59:42;6.18;;;5.32;;
51943;SDS011;37969;53.132;6.370;2023-02-28T16:04:53;6.20;;;5.32;;
51943;SDS011;37969;53.132;6.370;2023-02-28T16:07:20;6.88;;;6.10;;
51943;SDS011;37969;53.132;6.370;2023-02-28T16:09:46;8.23;;;5.95;;
51943;SDS011;37969;53.132;6.370;2023-02-28T16:12:13;8.00;;;5.85;;